createdAt,value
2019-03-08T00:00:17.592Z,29.40
2019-03-08T00:02:46.376Z,29.50
2019-03-08T00:05:15.092Z,29.40
2019-03-08T00:07:43.720Z,29.40
2019-03-08T00:10:12.648Z,29.50
2019-03-08T00:12:41.375Z,29.40
2019-03-08T00:15:11.872Z,29.40
2019-03-08T00:17:40.646Z,29.40
2019-03-08T00:20:11.447Z,29.40
2019-03-08T00:22:40.225Z,29.40
2019-03-08T00:25:11.533Z,29.40
2019-03-08T00:27:40.239Z,29.40
2019-03-08T00:30:16.551Z,29.30
2019-03-08T00:32:45.540Z,29.40
2019-03-08T00:35:14.271Z,29.40
2019-03-08T00:37:42.987Z,29.40
2019-03-08T00:40:14.020Z,29.40
2019-03-08T00:42:42.728Z,29.40
2019-03-08T00:45:14.170Z,29.40
2019-03-08T00:47:43.554Z,29.40
2019-03-08T00:50:12.664Z,29.40
2019-03-08T00:52:41.509Z,29.30
2019-03-08T00:55:12.523Z,29.40
2019-03-08T00:57:44.099Z,29.40
2019-03-08T01:00:19.435Z,29.30
2019-03-08T01:02:48.268Z,29.40
2019-03-08T01:05:17.501Z,29.30
2019-03-08T01:07:46.308Z,29.30
2019-03-08T01:10:25.521Z,29.30
2019-03-08T01:12:54.822Z,29.30
2019-03-08T01:15:23.568Z,29.30
2019-03-08T01:17:52.281Z,29.30
2019-03-08T01:20:21.244Z,29.30
2019-03-08T01:22:49.924Z,29.30
2019-03-08T01:25:19.038Z,29.30
2019-03-08T01:28:07.674Z,29.30
2019-03-08T01:30:37.884Z,29.30
2019-03-08T01:33:06.961Z,29.20
2019-03-08T01:35:36.002Z,29.20
2019-03-08T01:38:05.301Z,29.20
2019-03-08T01:40:36.532Z,29.20
2019-03-08T01:43:05.712Z,29.20
2019-03-08T01:45:34.467Z,29.20
2019-03-08T01:48:03.126Z,29.20
2019-03-08T01:50:31.812Z,29.20
2019-03-08T01:53:04.917Z,29.70
2019-03-08T01:55:33.615Z,29.20
2019-03-08T01:58:02.270Z,29.20
2019-03-08T02:00:30.957Z,29.20
2019-03-08T02:03:01.024Z,29.20
2019-03-08T02:05:29.754Z,29.20
2019-03-08T02:07:58.439Z,29.20
2019-03-08T02:10:27.112Z,29.10
2019-03-08T02:12:55.828Z,29.10
2019-03-08T02:15:24.562Z,29.10
2019-03-08T02:17:53.530Z,29.20
2019-03-08T02:20:23.047Z,29.10
2019-03-08T02:22:51.809Z,29.60
2019-03-08T02:25:20.460Z,29.10
2019-03-08T02:27:49.332Z,29.10
2019-03-08T02:30:18.830Z,29.10
2019-03-08T02:32:47.558Z,29.00
2019-03-08T02:35:19.244Z,29.10
2019-03-08T02:37:47.976Z,29.00
2019-03-08T02:40:33.686Z,29.10
2019-03-08T02:43:07.981Z,29.00
2019-03-08T02:45:36.743Z,29.00
2019-03-08T02:48:08.795Z,29.00
2019-03-08T02:50:37.451Z,29.00
2019-03-08T02:53:06.151Z,29.00
2019-03-08T02:55:35.263Z,29.00
2019-03-08T02:58:04.420Z,29.00
2019-03-08T03:00:36.118Z,29.00
2019-03-08T03:03:04.758Z,29.00
2019-03-08T03:05:33.465Z,29.00
2019-03-08T03:08:02.512Z,28.90
2019-03-08T03:10:31.193Z,28.90
2019-03-08T03:12:59.766Z,28.90
2019-03-08T03:15:28.454Z,28.90
2019-03-08T03:17:57.104Z,28.90
2019-03-08T03:20:28.894Z,28.90
2019-03-08T03:22:57.649Z,28.90
2019-03-08T03:25:26.439Z,28.90
2019-03-08T03:27:55.058Z,28.90
2019-03-08T03:30:23.791Z,28.90
2019-03-08T03:32:52.362Z,28.90
2019-03-08T03:35:20.934Z,28.90
2019-03-08T03:37:49.759Z,28.90
2019-03-08T03:40:22.278Z,28.90
2019-03-08T03:42:50.905Z,28.90
2019-03-08T03:45:20.422Z,28.90
2019-03-08T03:47:49.067Z,28.90
2019-03-08T03:50:18.642Z,28.90
2019-03-08T03:52:47.737Z,28.90
2019-03-08T03:55:17.790Z,28.90
2019-03-08T03:57:46.602Z,28.90
2019-03-08T04:00:18.285Z,28.90
2019-03-08T04:02:50.023Z,29.40
2019-03-08T04:05:18.781Z,28.90
2019-03-08T04:07:47.580Z,28.90
2019-03-08T04:10:17.176Z,28.90
2019-03-08T04:12:45.959Z,28.90
2019-03-08T04:15:19.652Z,28.90
2019-03-08T04:17:48.596Z,28.90
2019-03-08T04:20:18.662Z,28.90
2019-03-08T04:22:47.525Z,28.90
2019-03-08T04:25:20.297Z,28.80
2019-03-08T04:27:49.094Z,28.80
2019-03-08T04:30:20.170Z,28.80
2019-03-08T04:32:50.755Z,28.80
2019-03-08T04:35:19.479Z,28.80
2019-03-08T04:37:48.150Z,28.80
2019-03-08T04:40:16.919Z,28.80
2019-03-08T04:42:45.606Z,28.80
2019-03-08T04:45:16.325Z,28.80
2019-03-08T04:47:45.054Z,28.80
2019-03-08T04:50:15.119Z,29.20
2019-03-08T04:52:43.931Z,28.80
2019-03-08T04:55:20.351Z,28.80
2019-03-08T04:57:49.433Z,28.80
2019-03-08T05:00:19.568Z,28.80
2019-03-08T05:02:48.301Z,28.80
2019-03-08T05:05:17.062Z,28.70
2019-03-08T05:07:45.823Z,28.90
2019-03-08T05:10:19.178Z,28.80
2019-03-08T05:12:47.986Z,28.80
2019-03-08T05:15:20.750Z,28.70
2019-03-08T05:17:47.571Z,28.70
2019-03-08T05:20:16.273Z,28.70
2019-03-08T05:22:44.859Z,28.70
2019-03-08T05:25:15.380Z,28.70
2019-03-08T05:27:44.170Z,28.70
2019-03-08T05:30:17.070Z,28.60
2019-03-08T05:32:45.849Z,28.60
2019-03-08T05:35:15.451Z,28.70
2019-03-08T05:37:44.121Z,28.60
2019-03-08T05:40:14.278Z,28.60
2019-03-08T05:42:42.928Z,28.60
2019-03-08T05:45:13.137Z,28.60
2019-03-08T05:47:41.790Z,28.60
2019-03-08T05:50:11.466Z,28.70
2019-03-08T05:52:40.449Z,28.60
2019-03-08T05:55:11.477Z,28.70
2019-03-08T05:57:40.365Z,28.60
2019-03-08T06:00:16.618Z,28.60
2019-03-08T06:02:45.329Z,28.60
2019-03-08T06:05:14.044Z,28.60
2019-03-08T06:07:42.825Z,28.60
2019-03-08T06:10:28.944Z,28.60
2019-03-08T06:12:58.108Z,28.60
2019-03-08T06:15:26.816Z,28.60
2019-03-08T06:17:56.504Z,28.60
2019-03-08T06:20:25.462Z,28.60
2019-03-08T06:22:54.119Z,28.60
2019-03-08T06:25:22.804Z,28.70
2019-03-08T06:27:51.507Z,28.60
2019-03-08T06:30:20.326Z,28.60
2019-03-08T06:32:49.411Z,28.60
2019-03-08T06:35:18.136Z,28.60
2019-03-08T06:37:49.748Z,28.60
2019-03-08T06:40:18.514Z,28.60
2019-03-08T06:42:47.240Z,28.70
2019-03-08T06:45:19.413Z,28.70
2019-03-08T06:47:52.543Z,28.70
2019-03-08T06:50:21.231Z,28.70
2019-03-08T06:52:49.951Z,28.70
2019-03-08T06:55:18.705Z,28.70
2019-03-08T06:57:48.862Z,28.70
2019-03-08T07:00:35.443Z,28.80
2019-03-08T07:03:05.995Z,28.80
2019-03-08T07:05:34.702Z,28.80
2019-03-08T07:08:03.305Z,28.80
2019-03-08T07:10:31.965Z,28.80
2019-03-08T07:13:03.525Z,28.90
2019-03-08T07:15:32.648Z,28.90
2019-03-08T07:18:01.354Z,28.90
2019-03-08T07:20:37.464Z,28.90
2019-03-08T07:23:07.836Z,28.90
2019-03-08T07:25:55.084Z,28.90
2019-03-08T07:28:25.446Z,29.00
2019-03-08T07:31:08.017Z,29.00
2019-03-08T07:33:38.493Z,29.00
2019-03-08T07:36:14.987Z,29.00
2019-03-08T07:38:45.279Z,29.00
2019-03-08T07:41:24.177Z,29.00
2019-03-08T07:44:02.497Z,29.00
2019-03-08T07:46:38.777Z,29.00
2019-03-08T07:49:18.139Z,29.00
2019-03-08T07:51:48.471Z,29.00
2019-03-08T07:54:22.837Z,29.00
2019-03-08T07:57:09.559Z,29.00
2019-03-08T07:59:53.352Z,29.00
2019-03-08T08:02:33.377Z,29.00
2019-03-08T08:05:19.796Z,29.00
2019-03-08T08:07:59.564Z,29.00
2019-03-08T08:10:35.476Z,29.00
2019-03-08T08:13:05.892Z,29.00
2019-03-08T08:15:39.046Z,29.00
2019-03-08T08:18:12.214Z,29.00
2019-03-08T08:20:51.315Z,29.00
2019-03-08T08:23:21.625Z,29.00
2019-03-08T08:25:51.863Z,29.00
2019-03-08T08:28:25.105Z,29.00
2019-03-08T08:31:08.477Z,29.00
2019-03-08T08:33:50.514Z,29.00
2019-03-08T08:36:29.721Z,29.00
2019-03-08T08:39:05.823Z,29.10
2019-03-08T08:41:47.918Z,29.10
2019-03-08T08:44:18.150Z,29.10
2019-03-08T08:46:57.242Z,29.60
2019-03-08T08:49:54.074Z,29.10
2019-03-08T08:52:23.307Z,29.10
2019-03-08T08:54:59.692Z,29.10
2019-03-08T08:57:29.986Z,29.10
2019-03-08T09:00:03.184Z,29.20
2019-03-08T09:02:33.453Z,29.10
2019-03-08T09:05:10.544Z,29.10
2019-03-08T09:07:58.382Z,29.10
2019-03-08T09:10:48.360Z,29.50
2019-03-08T09:13:25.927Z,29.20
2019-03-08T09:15:59.079Z,29.30
2019-03-08T09:18:38.156Z,29.30
2019-03-08T09:21:08.478Z,29.20
2019-03-08T09:23:41.541Z,29.20
2019-03-08T09:26:11.858Z,29.20
2019-03-08T09:28:54.210Z,29.30
2019-03-08T09:31:40.733Z,29.30
2019-03-08T09:34:20.041Z,29.20
2019-03-08T09:36:55.799Z,29.20
2019-03-08T09:39:28.733Z,29.20
2019-03-08T09:42:14.020Z,29.20
2019-03-08T09:44:47.095Z,29.20
2019-03-08T09:47:17.790Z,29.20
2019-03-08T09:49:50.826Z,29.20
2019-03-08T09:52:24.033Z,29.20
2019-03-08T09:55:06.291Z,29.20
2019-03-08T09:57:36.926Z,29.30
2019-03-08T10:00:25.118Z,29.40
2019-03-08T10:02:58.218Z,29.30
2019-03-08T10:05:40.796Z,29.40
2019-03-08T10:08:11.117Z,29.30
2019-03-08T10:10:44.472Z,29.30
2019-03-08T10:13:26.887Z,29.30
2019-03-08T10:16:01.607Z,29.30
2019-03-08T10:18:46.687Z,29.30
2019-03-08T10:21:17.068Z,29.20
2019-03-08T10:23:59.633Z,29.20
2019-03-08T10:26:41.849Z,29.30
2019-03-08T10:29:14.950Z,29.30
2019-03-08T10:31:50.967Z,29.30
2019-03-08T10:34:37.556Z,29.30
2019-03-08T10:37:19.599Z,29.30
2019-03-08T10:40:08.028Z,29.30
2019-03-08T10:42:50.351Z,29.30
2019-03-08T10:45:29.167Z,29.30
2019-03-08T10:48:11.619Z,29.30
2019-03-08T10:50:58.274Z,29.30
2019-03-08T10:53:31.614Z,29.30
2019-03-08T10:56:04.623Z,29.30
2019-03-08T10:58:50.170Z,29.30
2019-03-08T11:01:32.318Z,29.20
2019-03-08T11:04:14.943Z,29.20
2019-03-08T11:06:45.407Z,29.20
2019-03-08T11:09:20.218Z,29.20
2019-03-08T11:11:59.485Z,29.20
2019-03-08T11:14:45.889Z,29.20
2019-03-08T11:17:25.142Z,29.20
2019-03-08T11:19:55.399Z,29.20
2019-03-08T11:22:34.941Z,29.20
2019-03-08T11:25:19.239Z,29.20
2019-03-08T11:27:55.406Z,29.30
2019-03-08T11:30:38.004Z,29.30
2019-03-08T11:33:17.191Z,29.30
2019-03-08T11:35:47.793Z,29.20
2019-03-08T11:38:22.651Z,29.20
2019-03-08T11:41:12.440Z,29.20
2019-03-08T11:43:51.362Z,29.20
2019-03-08T11:46:21.717Z,29.20
2019-03-08T11:48:52.095Z,29.10
2019-03-08T11:51:44.196Z,29.20
2019-03-08T11:54:14.416Z,29.10
2019-03-08T11:57:02.713Z,29.10
2019-03-08T11:59:48.062Z,29.70
2019-03-08T12:02:18.395Z,29.10
2019-03-08T12:04:53.339Z,29.10
2019-03-08T12:07:23.691Z,29.20
2019-03-08T12:09:54.046Z,29.20
2019-03-08T12:12:24.393Z,29.20
2019-03-08T12:14:57.294Z,29.20
2019-03-08T12:17:36.153Z,29.20
2019-03-08T12:20:12.459Z,29.20
2019-03-08T12:22:59.281Z,29.20
2019-03-08T12:25:32.549Z,29.20
2019-03-08T12:28:05.906Z,29.20
2019-03-08T12:30:36.540Z,29.20
2019-03-08T12:33:12.773Z,29.10
2019-03-08T12:35:43.200Z,29.20
2019-03-08T12:38:19.060Z,29.40
2019-03-08T12:41:05.504Z,29.30
2019-03-08T12:43:35.880Z,29.30
2019-03-08T12:46:13.569Z,29.20
2019-03-08T12:48:43.796Z,29.10
2019-03-08T12:51:32.509Z,29.20
2019-03-08T12:54:05.390Z,29.10
2019-03-08T12:56:38.687Z,29.10
2019-03-08T12:59:11.654Z,29.10
2019-03-08T13:01:41.989Z,29.00
2019-03-08T13:04:12.217Z,29.00
2019-03-08T13:06:45.168Z,29.00
2019-03-08T13:09:18.559Z,29.10
2019-03-08T13:11:47.275Z,29.00
2019-03-08T13:14:16.004Z,29.00
2019-03-08T13:16:44.610Z,29.00
2019-03-08T13:19:13.264Z,29.10
2019-03-08T13:21:41.913Z,29.00
2019-03-08T13:24:10.969Z,29.00
2019-03-08T13:26:39.599Z,29.00
2019-03-08T13:29:08.278Z,29.00
2019-03-08T13:31:36.957Z,29.00
2019-03-08T13:34:05.638Z,29.00
2019-03-08T13:36:34.219Z,28.90
2019-03-08T13:39:04.571Z,28.90
2019-03-08T13:41:33.221Z,28.90
2019-03-08T13:44:01.994Z,28.90
2019-03-08T13:46:30.626Z,28.90
2019-03-08T13:48:59.391Z,28.90
2019-03-08T13:51:28.122Z,28.90
2019-03-08T13:53:57.164Z,28.90
2019-03-08T13:56:25.748Z,28.90
2019-03-08T13:58:54.504Z,28.90
2019-03-08T14:01:23.161Z,28.80
2019-03-08T14:03:51.822Z,28.80
2019-03-08T14:06:20.471Z,28.80
2019-03-08T14:08:53.655Z,28.80
2019-03-08T14:11:22.422Z,28.80
2019-03-08T14:13:52.528Z,28.90
2019-03-08T14:16:21.233Z,28.80
2019-03-08T14:18:49.857Z,28.80
2019-03-08T14:21:22.202Z,29.30
2019-03-08T14:23:50.891Z,28.80
2019-03-08T14:26:19.552Z,28.80
2019-03-08T14:28:48.198Z,28.80
2019-03-08T14:31:27.328Z,28.80
2019-03-08T14:33:58.035Z,28.80
2019-03-08T14:36:28.546Z,29.30
2019-03-08T14:38:57.210Z,28.80
2019-03-08T14:41:43.848Z,28.80
2019-03-08T14:44:16.837Z,28.80
2019-03-08T14:46:47.100Z,28.70
2019-03-08T14:49:19.139Z,28.80
2019-03-08T14:51:48.276Z,28.80
2019-03-08T14:54:16.388Z,28.80
2019-03-08T14:56:45.076Z,28.80
2019-03-08T14:59:15.362Z,28.80
2019-03-08T15:01:44.114Z,28.80
2019-03-08T15:04:12.790Z,28.80
2019-03-08T15:06:41.610Z,28.80
2019-03-08T15:09:12.611Z,28.80
2019-03-08T15:11:41.368Z,28.80
2019-03-08T15:14:09.949Z,28.80
2019-03-08T15:16:39.378Z,28.90
2019-03-08T15:19:08.715Z,28.80
2019-03-08T15:21:41.469Z,28.80
2019-03-08T15:24:07.957Z,28.80
2019-03-08T15:26:36.695Z,28.80
2019-03-08T15:29:05.472Z,28.90
2019-03-08T15:31:34.099Z,28.90
2019-03-08T15:34:02.793Z,28.90
2019-03-08T15:36:31.431Z,28.90
2019-03-08T15:39:00.082Z,28.90
2019-03-08T15:41:28.776Z,28.90
2019-03-08T15:43:57.391Z,29.00
2019-03-08T15:46:26.881Z,29.00
2019-03-08T15:48:55.751Z,29.00
2019-03-08T15:51:25.372Z,29.00
2019-03-08T15:53:54.481Z,29.00
2019-03-08T15:56:23.342Z,29.00
2019-03-08T15:58:51.952Z,29.00
2019-03-08T16:01:20.683Z,29.00
2019-03-08T16:03:49.472Z,29.00
2019-03-08T16:06:19.868Z,29.10
2019-03-08T16:08:48.617Z,29.00
2019-03-08T16:11:17.295Z,29.00
2019-03-08T16:13:45.873Z,29.00
2019-03-08T16:16:14.708Z,29.10
2019-03-08T16:18:44.449Z,29.10
2019-03-08T16:21:14.397Z,29.10
2019-03-08T16:23:43.114Z,29.10
2019-03-08T16:26:11.693Z,29.00
2019-03-08T16:28:40.282Z,29.10
2019-03-08T16:31:13.272Z,29.10
2019-03-08T16:33:43.487Z,29.10
2019-03-08T16:36:19.398Z,29.10
2019-03-08T16:39:06.190Z,29.10
2019-03-08T16:41:38.809Z,29.10
2019-03-08T16:44:25.128Z,29.10
2019-03-08T16:47:08.766Z,29.00
2019-03-08T16:49:40.547Z,29.10
2019-03-08T16:52:16.395Z,29.10
2019-03-08T16:55:01.790Z,29.20
2019-03-08T16:57:48.099Z,29.20
2019-03-08T17:00:21.715Z,29.20
2019-03-08T17:02:51.942Z,29.20
2019-03-08T17:05:38.382Z,29.20
2019-03-08T17:08:17.463Z,29.20
2019-03-08T17:10:50.831Z,29.20
2019-03-08T17:13:26.835Z,29.20
2019-03-08T17:15:59.899Z,29.20
2019-03-08T17:18:49.655Z,29.20
2019-03-08T17:21:20.053Z,29.20
2019-03-08T17:23:53.148Z,29.20
2019-03-08T17:26:29.122Z,29.20
2019-03-08T17:28:59.456Z,29.20
2019-03-08T17:31:29.739Z,29.20
2019-03-08T17:34:01.106Z,29.20
2019-03-08T17:36:49.875Z,29.20
2019-03-08T17:39:25.816Z,29.10
2019-03-08T17:41:56.064Z,29.10
2019-03-08T17:44:26.617Z,29.10
2019-03-08T17:46:56.838Z,29.10
2019-03-08T17:49:43.437Z,29.10
2019-03-08T17:52:19.675Z,29.20
2019-03-08T17:55:05.815Z,29.10
2019-03-08T17:57:52.226Z,29.10
2019-03-08T18:00:23.232Z,29.00
2019-03-08T18:02:53.568Z,29.00
2019-03-08T18:05:24.000Z,29.10
2019-03-08T18:07:57.217Z,29.10
2019-03-08T18:10:28.133Z,29.00
2019-03-08T18:13:01.332Z,29.00
2019-03-08T18:15:41.606Z,29.00
2019-03-08T18:18:11.899Z,29.00
2019-03-08T18:20:45.685Z,29.00
2019-03-08T18:23:24.725Z,29.00
2019-03-08T18:26:00.800Z,29.00
2019-03-08T18:28:33.544Z,29.00
2019-03-08T18:31:06.775Z,28.90
2019-03-08T18:33:42.995Z,28.90
2019-03-08T18:36:13.404Z,28.90
2019-03-08T18:38:46.476Z,28.90
2019-03-08T18:41:25.503Z,28.90
2019-03-08T18:44:07.639Z,29.00
2019-03-08T18:46:46.851Z,28.90
2019-03-08T18:49:25.891Z,28.90
2019-03-08T18:51:59.214Z,28.90
2019-03-08T18:54:38.839Z,28.90
2019-03-08T18:57:25.552Z,28.90
2019-03-08T19:00:05.104Z,28.80
2019-03-08T19:02:35.626Z,28.80
2019-03-08T19:05:24.570Z,28.80
2019-03-08T19:07:57.361Z,28.80
2019-03-08T19:10:28.146Z,28.80
2019-03-08T19:13:04.737Z,28.80
2019-03-08T19:15:43.791Z,28.80
2019-03-08T19:18:14.114Z,28.80
2019-03-08T19:20:50.211Z,28.80
2019-03-08T19:23:23.322Z,28.70
2019-03-08T19:25:53.641Z,28.80
2019-03-08T19:28:24.059Z,28.80
2019-03-08T19:30:54.500Z,28.80
2019-03-08T19:33:27.759Z,28.80
2019-03-08T19:36:04.076Z,28.80
2019-03-08T19:38:34.485Z,28.70
2019-03-08T19:41:13.478Z,28.70
2019-03-08T19:43:58.607Z,28.70
2019-03-08T19:46:37.587Z,28.70
2019-03-08T19:49:10.497Z,28.70
2019-03-08T19:51:43.888Z,28.70
2019-03-08T19:54:16.903Z,28.70
2019-03-08T19:56:47.202Z,28.90
2019-03-08T19:59:23.442Z,28.70
2019-03-08T20:01:59.712Z,28.70
2019-03-08T20:04:46.076Z,28.70
2019-03-08T20:07:16.473Z,28.70
2019-03-08T20:09:46.700Z,28.60
2019-03-08T20:12:16.995Z,28.60
2019-03-08T20:14:50.268Z,28.60
2019-03-08T20:17:29.268Z,28.60
2019-03-08T20:19:59.603Z,28.60
2019-03-08T20:22:35.825Z,28.60
2019-03-08T20:25:07.387Z,28.60
2019-03-08T20:27:46.935Z,28.60
2019-03-08T20:30:32.616Z,28.60
2019-03-08T20:33:11.555Z,28.60
2019-03-08T20:35:41.995Z,28.60
2019-03-08T20:38:17.899Z,29.10
2019-03-08T20:40:54.130Z,28.60
2019-03-08T20:43:36.501Z,28.60
2019-03-08T20:46:06.873Z,28.60
2019-03-08T20:48:35.556Z,28.60
2019-03-08T20:51:04.352Z,28.60
2019-03-08T20:53:33.004Z,28.60
2019-03-08T20:56:01.702Z,28.60
2019-03-08T20:58:30.370Z,28.60
2019-03-08T21:00:59.118Z,28.50
2019-03-08T21:03:27.824Z,28.50
2019-03-08T21:05:56.866Z,28.60
2019-03-08T21:08:25.482Z,28.50
2019-03-08T21:10:54.272Z,28.50
2019-03-08T21:13:22.918Z,28.60
2019-03-08T21:15:51.699Z,28.60
2019-03-08T21:18:20.456Z,28.50
2019-03-08T21:20:49.206Z,28.50
2019-03-08T21:23:17.856Z,28.50
2019-03-08T21:25:49.231Z,28.50
2019-03-08T21:28:17.994Z,28.50
2019-03-08T21:30:46.714Z,28.50
2019-03-08T21:33:15.568Z,28.50
2019-03-08T21:35:44.241Z,28.50
2019-03-08T21:38:12.926Z,28.50
2019-03-08T21:40:41.638Z,28.50
2019-03-08T21:43:14.432Z,28.50
2019-03-08T21:45:43.206Z,28.50
2019-03-08T21:48:11.832Z,28.50
2019-03-08T21:50:40.523Z,28.50
2019-03-08T21:53:09.220Z,28.50
2019-03-08T21:55:37.989Z,28.40
2019-03-08T21:58:06.974Z,28.40
2019-03-08T22:00:35.695Z,28.50
2019-03-08T22:03:04.442Z,28.50
2019-03-08T22:05:34.807Z,28.50
2019-03-08T22:08:05.019Z,28.50
2019-03-08T22:10:38.065Z,28.50
2019-03-08T22:13:06.750Z,28.50
2019-03-08T22:15:35.590Z,28.50
2019-03-08T22:18:04.247Z,28.50
2019-03-08T22:20:33.018Z,28.40
2019-03-08T22:23:01.613Z,28.40
2019-03-08T22:25:30.388Z,28.50
2019-03-08T22:28:01.983Z,28.40
2019-03-08T22:30:30.697Z,28.50
2019-03-08T22:32:59.428Z,28.50
2019-03-08T22:35:28.223Z,28.40
2019-03-08T22:37:56.904Z,28.40
2019-03-08T22:40:25.634Z,28.50
2019-03-08T22:42:54.345Z,28.50
2019-03-08T22:45:23.067Z,28.40
2019-03-08T22:47:51.683Z,28.40
2019-03-08T22:50:20.606Z,28.40
2019-03-08T22:52:49.207Z,28.40
2019-03-08T22:55:17.935Z,28.40
2019-03-08T22:57:46.621Z,28.40
2019-03-08T23:00:54.085Z,28.40
2019-03-08T23:03:24.249Z,28.40
2019-03-08T23:05:52.965Z,28.40
2019-03-08T23:08:21.720Z,28.40
2019-03-08T23:10:50.377Z,28.40
2019-03-08T23:13:19.062Z,28.40
2019-03-08T23:15:47.816Z,28.40
2019-03-08T23:18:16.603Z,28.40
2019-03-08T23:20:45.339Z,28.40
2019-03-08T23:23:14.471Z,28.40
2019-03-08T23:25:43.099Z,28.40
2019-03-08T23:28:22.471Z,28.40
2019-03-08T23:30:55.265Z,28.50
2019-03-08T23:33:24.258Z,28.40
2019-03-08T23:35:52.831Z,28.40
2019-03-08T23:38:21.482Z,28.40
2019-03-08T23:40:50.192Z,28.40
2019-03-08T23:43:18.881Z,28.40
2019-03-08T23:45:47.507Z,28.40
2019-03-08T23:48:16.200Z,28.40
2019-03-08T23:50:44.898Z,28.40
2019-03-08T23:53:13.557Z,28.40
2019-03-08T23:55:42.274Z,28.40
2019-03-08T23:58:10.931Z,28.40
